createdAt,value
2022-08-09T00:00:20.939Z,7.85
2022-08-09T00:02:51.486Z,8.93
2022-08-09T00:06:19.696Z,8.25
2022-08-09T00:08:10.061Z,6.53
2022-08-09T00:10:40.625Z,7.60
2022-08-09T00:13:17.093Z,6.93
2022-08-09T00:15:59.599Z,8.10
2022-08-09T00:18:34.546Z,9.02
2022-08-09T00:21:04.911Z,6.03
2022-08-09T00:23:54.901Z,8.23
2022-08-09T00:26:32.460Z,8.63
2022-08-09T00:29:01.018Z,5.78
2022-08-09T00:31:59.131Z,10.43
2022-08-09T00:34:14.924Z,7.55
2022-08-09T00:36:48.886Z,9.20
2022-08-09T00:40:09.707Z,7.43
2022-08-09T00:44:19.392Z,8.00
2022-08-09T00:44:53.758Z,12.52
2022-08-09T00:47:24.930Z,5.55
2022-08-09T00:49:55.120Z,6.95
2022-08-09T00:52:30.639Z,7.35
2022-08-09T00:55:03.731Z,8.93
2022-08-09T00:57:34.594Z,6.28
2022-08-09T01:00:22.068Z,7.45
2022-08-09T01:02:53.757Z,8.13
2022-08-09T01:05:50.686Z,8.25
2022-08-09T01:08:49.445Z,7.72
2022-08-09T01:11:20.316Z,9.38
2022-08-09T01:14:07.054Z,7.32
2022-08-09T01:16:47.442Z,10.38
2022-08-09T01:19:39.712Z,5.82
2022-08-09T01:22:46.244Z,7.10
2022-08-09T01:25:41.655Z,9.38
2022-08-09T01:28:10.632Z,6.70
2022-08-09T01:30:52.682Z,8.77
2022-08-09T01:33:26.231Z,10.55
2022-08-09T01:36:19.582Z,6.20
2022-08-09T01:38:49.229Z,7.10
2022-08-09T01:41:26.117Z,6.57
2022-08-09T01:43:57.932Z,7.03
2022-08-09T01:46:31.710Z,10.88
2022-08-09T01:49:09.521Z,6.57
2022-08-09T01:51:42.900Z,6.28
2022-08-09T01:54:13.759Z,7.07
2022-08-09T01:56:43.345Z,9.23
2022-08-09T01:59:20.108Z,7.78
2022-08-09T02:01:59.811Z,7.85
2022-08-09T02:04:29.886Z,10.05
2022-08-09T02:07:17.957Z,11.73
2022-08-09T02:10:15.239Z,7.70
2022-08-09T02:12:44.258Z,8.45
2022-08-09T02:15:16.687Z,10.13
2022-08-09T02:18:00.652Z,9.55
2022-08-09T02:20:41.010Z,6.82
2022-08-09T02:23:12.819Z,8.75
2022-08-09T02:25:49.501Z,7.10
2022-08-09T02:28:34.445Z,8.25
2022-08-09T02:31:06.191Z,9.85
2022-08-09T02:34:06.350Z,11.80
2022-08-09T02:36:31.532Z,9.32
2022-08-09T02:39:05.649Z,8.40
2022-08-09T02:41:45.710Z,7.43
2022-08-09T02:44:29.332Z,6.95
2022-08-09T02:47:02.179Z,8.13
2022-08-09T02:49:38.822Z,11.00
2022-08-09T02:52:13.626Z,9.57
2022-08-09T02:54:54.650Z,8.90
2022-08-09T02:57:26.814Z,8.93
2022-08-09T03:00:20.832Z,6.97
2022-08-09T03:03:00.113Z,9.27
2022-08-09T03:05:28.612Z,7.90
2022-08-09T03:07:55.888Z,9.95
2022-08-09T03:10:24.049Z,9.05
2022-08-09T03:12:52.694Z,8.60
2022-08-09T03:15:23.361Z,9.98
2022-08-09T03:17:53.810Z,10.82
2022-08-09T03:20:29.450Z,10.57
2022-08-09T03:23:00.321Z,10.32
2022-08-09T03:25:58.174Z,7.88
2022-08-09T03:28:30.571Z,8.23
2022-08-09T03:30:58.791Z,7.43
2022-08-09T03:33:53.282Z,8.82
2022-08-09T03:36:18.157Z,7.30
2022-08-09T03:38:49.873Z,12.00
2022-08-09T03:41:18.428Z,8.05
2022-08-09T03:44:03.265Z,10.43
2022-08-09T03:46:34.668Z,8.48
2022-08-09T03:49:08.242Z,11.63
2022-08-09T03:51:54.124Z,8.55
2022-08-09T03:54:29.549Z,10.48
2022-08-09T03:56:59.261Z,9.82
2022-08-09T03:59:42.757Z,9.32
2022-08-09T04:02:19.964Z,11.07
2022-08-09T04:04:55.534Z,7.00
2022-08-09T04:07:47.709Z,11.65
2022-08-09T04:10:13.941Z,12.88
2022-08-09T04:12:47.800Z,7.68
2022-08-09T04:15:39.107Z,9.23
2022-08-09T04:18:06.453Z,10.90
2022-08-09T04:20:33.358Z,9.32
2022-08-09T04:23:00.652Z,12.27
2022-08-09T04:25:29.291Z,11.93
2022-08-09T04:28:02.400Z,8.13
2022-08-09T04:30:31.720Z,8.63
2022-08-09T04:33:00.209Z,7.68
2022-08-09T04:35:32.811Z,12.23
2022-08-09T04:38:00.068Z,13.50
2022-08-09T04:40:48.273Z,14.80
2022-08-09T04:43:25.797Z,9.02
2022-08-09T04:45:53.943Z,10.02
2022-08-09T04:48:21.678Z,10.57
2022-08-09T04:50:50.558Z,10.88
2022-08-09T04:53:17.254Z,9.55
2022-08-09T04:55:58.787Z,10.07
2022-08-09T04:58:31.857Z,10.20
2022-08-09T05:01:01.910Z,13.27
2022-08-09T05:03:42.592Z,8.25
2022-08-09T05:06:26.713Z,10.68
2022-08-09T05:09:00.679Z,10.07
2022-08-09T05:11:30.689Z,9.13
2022-08-09T05:13:59.409Z,12.07
2022-08-09T05:16:31.491Z,8.43
2022-08-09T05:19:00.182Z,8.50
2022-08-09T05:21:30.152Z,8.60
2022-08-09T05:24:04.035Z,6.90
2022-08-09T05:26:45.671Z,8.25
2022-08-09T05:29:22.178Z,9.10
2022-08-09T05:31:57.084Z,9.70
2022-08-09T05:34:30.209Z,7.45
2022-08-09T05:36:59.124Z,5.68
2022-08-09T05:39:35.601Z,7.70
2022-08-09T05:42:04.619Z,9.35
2022-08-09T05:44:32.882Z,8.02
2022-08-09T05:47:05.686Z,8.38
2022-08-09T05:50:23.462Z,8.38
2022-08-09T05:52:19.909Z,7.50
2022-08-09T05:54:49.504Z,9.30
2022-08-09T05:57:17.524Z,7.22
2022-08-09T05:59:45.909Z,9.35
2022-08-09T06:02:17.138Z,12.35
2022-08-09T06:04:46.051Z,9.25
2022-08-09T06:07:21.597Z,8.10
2022-08-09T06:10:01.765Z,8.73
2022-08-09T06:12:29.998Z,9.85
2022-08-09T06:15:00.983Z,8.27
2022-08-09T06:17:39.067Z,8.30
2022-08-09T06:20:07.145Z,8.88
2022-08-09T06:22:37.249Z,8.30
2022-08-09T06:25:08.592Z,9.80
2022-08-09T06:27:43.205Z,9.75
2022-08-09T06:30:20.460Z,11.38
2022-08-09T06:32:59.007Z,8.77
2022-08-09T06:35:56.044Z,8.07
2022-08-09T06:38:31.943Z,12.55
2022-08-09T06:41:04.877Z,8.07
2022-08-09T06:43:46.258Z,9.13
2022-08-09T06:46:40.546Z,9.85
2022-08-09T06:49:02.855Z,9.18
2022-08-09T06:51:30.292Z,8.48
2022-08-09T06:54:00.672Z,8.18
2022-08-09T06:56:31.062Z,11.20
2022-08-09T07:00:50.666Z,7.97
2022-08-09T07:01:54.291Z,7.95
2022-08-09T07:04:26.882Z,11.52
2022-08-09T07:07:00.198Z,7.97
2022-08-09T07:09:55.497Z,8.85
2022-08-09T07:12:18.686Z,9.40
2022-08-09T07:14:51.198Z,8.18
2022-08-09T07:17:20.230Z,6.63
2022-08-09T07:19:55.482Z,8.73
2022-08-09T07:22:34.364Z,8.00
2022-08-09T07:25:05.326Z,9.50
2022-08-09T07:27:43.053Z,7.63
2022-08-09T07:30:21.763Z,8.88
2022-08-09T07:32:52.015Z,8.45
2022-08-09T07:35:19.284Z,7.28
2022-08-09T07:37:47.896Z,11.75
2022-08-09T07:40:27.103Z,7.40
2022-08-09T07:42:58.452Z,9.45
2022-08-09T07:45:39.621Z,7.43
2022-08-09T07:48:22.416Z,11.02
2022-08-09T07:51:09.824Z,6.18
2022-08-09T07:54:04.483Z,7.40
2022-08-09T07:56:31.782Z,6.70
2022-08-09T07:58:59.307Z,9.63
2022-08-09T08:01:33.903Z,7.90
2022-08-09T08:04:04.516Z,6.18
2022-08-09T08:06:37.334Z,7.55
2022-08-09T08:09:35.461Z,11.38
2022-08-09T08:12:34.364Z,6.25
2022-08-09T08:14:58.603Z,5.88
2022-08-09T08:17:35.355Z,5.28
2022-08-09T08:20:19.482Z,7.88
2022-08-09T08:23:01.330Z,7.70
2022-08-09T08:25:43.867Z,5.07
2022-08-09T08:28:14.242Z,5.40
2022-08-09T08:30:45.059Z,6.43
2022-08-09T08:33:21.880Z,4.85
2022-08-09T08:35:59.874Z,5.50
2022-08-09T08:38:30.293Z,5.88
2022-08-09T08:40:58.173Z,4.50
2022-08-09T08:43:27.968Z,3.58
2022-08-09T08:46:24.952Z,5.32
2022-08-09T08:48:53.967Z,6.07
2022-08-09T08:51:23.949Z,5.78
2022-08-09T08:54:04.452Z,5.22
2022-08-09T08:56:38.490Z,3.53
2022-08-09T08:59:20.157Z,2.92
2022-08-09T09:01:53.306Z,3.58
2022-08-09T09:04:28.845Z,6.53
2022-08-09T09:07:00.721Z,3.17
2022-08-09T09:09:58.043Z,3.90
2022-08-09T09:12:29.147Z,7.57
2022-08-09T09:14:58.809Z,10.05
2022-08-09T09:17:25.530Z,3.15
2022-08-09T09:20:15.794Z,5.82
2022-08-09T09:23:01.613Z,5.18
2022-08-09T09:26:03.097Z,6.97
2022-08-09T09:29:01.975Z,2.05
2022-08-09T09:31:17.577Z,3.80
2022-08-09T09:34:14.645Z,3.53
2022-08-09T09:36:50.910Z,2.30
2022-08-09T09:39:23.451Z,3.90
2022-08-09T09:41:54.246Z,2.67
2022-08-09T09:44:27.729Z,2.08
2022-08-09T09:47:07.347Z,4.47
2022-08-09T09:50:13.647Z,4.25
2022-08-09T09:52:35.947Z,1.90
2022-08-09T09:55:24.207Z,1.58
2022-08-09T09:58:15.891Z,2.05
2022-08-09T10:00:52.708Z,1.23
2022-08-09T10:03:57.960Z,2.28
2022-08-09T10:06:42.646Z,5.82
2022-08-09T10:09:22.491Z,2.03
2022-08-09T10:12:14.586Z,1.70
2022-08-09T10:14:49.468Z,2.63
2022-08-09T10:17:50.653Z,2.92
2022-08-09T10:20:27.053Z,1.67
2022-08-09T10:23:21.145Z,1.50
2022-08-09T10:26:06.218Z,2.05
2022-08-09T10:28:37.430Z,2.67
2022-08-09T10:34:08.149Z,3.50
2022-08-09T10:36:39.126Z,5.05
2022-08-09T10:39:16.171Z,1.52
2022-08-09T10:41:48.696Z,2.40
2022-08-09T10:44:23.125Z,2.20
2022-08-09T10:48:17.023Z,3.90
2022-08-09T10:50:31.258Z,1.92
2022-08-09T10:53:19.392Z,0.95
2022-08-09T10:55:57.812Z,0.85
2022-08-09T10:58:32.379Z,2.13
2022-08-09T11:03:02.903Z,6.05
2022-08-09T11:04:20.080Z,3.20
2022-08-09T11:06:59.678Z,1.35
2022-08-09T11:09:47.414Z,2.25
2022-08-09T11:12:30.160Z,0.55
2022-08-09T11:14:59.011Z,2.30
2022-08-09T11:17:27.817Z,2.40
2022-08-09T11:20:17.959Z,2.67
2022-08-09T11:22:55.583Z,1.55
2022-08-09T11:25:44.788Z,1.73
2022-08-09T11:28:55.976Z,1.95
2022-08-09T11:31:52.899Z,2.03
2022-08-09T11:34:44.813Z,0.80
2022-08-09T11:37:28.003Z,2.42
2022-08-09T11:40:11.037Z,0.90
2022-08-09T11:42:40.949Z,1.33
2022-08-09T11:45:20.683Z,3.10
2022-08-09T11:47:51.032Z,2.55
2022-08-09T11:50:55.820Z,3.88
2022-08-09T11:53:57.882Z,2.97
2022-08-09T11:56:42.499Z,1.85
2022-08-09T11:59:29.902Z,2.78
2022-08-09T12:02:16.290Z,0.65
2022-08-09T12:04:44.244Z,3.80
2022-08-09T12:07:11.201Z,2.95
2022-08-09T12:09:50.727Z,0.80
2022-08-09T12:12:28.749Z,1.40
2022-08-09T12:15:03.959Z,1.33
2022-08-09T12:17:44.420Z,1.38
2022-08-09T12:20:21.576Z,0.77
2022-08-09T12:22:53.179Z,1.33
2022-08-09T12:25:36.864Z,0.95
2022-08-09T12:29:15.411Z,2.70
2022-08-09T12:31:58.177Z,1.48
2022-08-09T12:34:05.261Z,1.63
2022-08-09T12:36:34.089Z,4.28
2022-08-09T12:39:14.439Z,2.65
2022-08-09T12:41:41.839Z,5.18
2022-08-09T12:44:12.950Z,1.42
2022-08-09T12:46:49.011Z,1.00
2022-08-09T12:49:17.294Z,1.80
2022-08-09T12:52:00.730Z,0.50
2022-08-09T12:54:29.132Z,4.95
2022-08-09T12:56:58.934Z,1.08
2022-08-09T12:59:57.948Z,2.72
2022-08-09T13:02:20.089Z,1.15
2022-08-09T13:05:02.351Z,1.70
2022-08-09T13:07:50.447Z,1.17
2022-08-09T13:10:17.109Z,1.98
2022-08-09T13:12:59.090Z,3.95
2022-08-09T13:15:35.890Z,0.77
2022-08-09T13:18:05.814Z,3.70
2022-08-09T13:22:34.306Z,1.05
2022-08-09T13:24:16.422Z,1.33
2022-08-09T13:26:42.323Z,2.17
2022-08-09T13:29:13.214Z,1.88
2022-08-09T13:32:17.074Z,2.22
2022-08-09T13:34:47.127Z,1.95
2022-08-09T13:37:50.589Z,1.55
2022-08-09T13:41:54.898Z,1.63
2022-08-09T13:42:50.665Z,1.40
2022-08-09T13:45:18.197Z,2.28
2022-08-09T13:47:49.077Z,1.55
2022-08-09T13:50:30.612Z,2.58
2022-08-09T13:52:58.668Z,4.38
2022-08-09T13:55:28.985Z,1.80
2022-08-09T13:57:58.395Z,5.00
2022-08-09T14:00:30.464Z,1.70
2022-08-09T14:03:03.277Z,4.13
2022-08-09T14:05:57.355Z,1.17
2022-08-09T14:08:29.824Z,1.42
2022-08-09T14:10:57.019Z,1.92
2022-08-09T14:14:15.175Z,2.47
2022-08-09T14:16:28.867Z,1.05
2022-08-09T14:18:58.193Z,2.58
2022-08-09T14:21:32.062Z,0.95
2022-08-09T14:24:01.110Z,2.63
2022-08-09T14:26:33.957Z,2.10
2022-08-09T14:29:08.043Z,3.10
2022-08-09T14:31:53.356Z,3.08
2022-08-09T14:34:30.966Z,2.95
2022-08-09T14:37:00.008Z,1.25
2022-08-09T14:39:46.062Z,1.00
2022-08-09T14:42:30.530Z,1.17
2022-08-09T14:46:39.056Z,4.78
2022-08-09T14:47:58.407Z,1.10
2022-08-09T14:50:32.338Z,1.55
2022-08-09T14:53:10.939Z,1.77
2022-08-09T14:55:42.036Z,3.13
2022-08-09T14:58:09.281Z,3.75
2022-08-09T15:00:36.978Z,1.33
2022-08-09T15:03:06.132Z,3.00
2022-08-09T15:05:37.344Z,6.65
2022-08-09T15:08:10.261Z,1.65
2022-08-09T15:10:38.230Z,0.85
2022-08-09T15:13:08.738Z,1.05
2022-08-09T15:15:41.113Z,1.45
2022-08-09T15:18:12.488Z,1.80
2022-08-09T15:22:00.632Z,1.55
2022-08-09T15:24:01.377Z,2.20
2022-08-09T15:26:19.010Z,3.78
2022-08-09T15:28:58.219Z,0.70
2022-08-09T15:31:40.708Z,1.08
2022-08-09T15:34:32.166Z,1.38
2022-08-09T15:36:58.105Z,2.30
2022-08-09T15:39:25.399Z,4.35
2022-08-09T15:42:01.616Z,4.30
2022-08-09T15:44:32.627Z,2.80
2022-08-09T15:47:00.887Z,1.80
2022-08-09T15:49:28.552Z,2.55
2022-08-09T15:52:03.943Z,2.50
2022-08-09T15:54:44.590Z,2.10
2022-08-09T15:57:18.931Z,0.65
2022-08-09T16:00:03.177Z,3.92
2022-08-09T16:02:29.767Z,2.47
2022-08-09T16:04:56.328Z,1.48
2022-08-09T16:07:22.902Z,4.10
2022-08-09T16:10:02.341Z,1.92
2022-08-09T16:12:32.602Z,0.57
2022-08-09T16:15:01.627Z,1.77
2022-08-09T16:17:33.655Z,2.67
2022-08-09T16:20:04.952Z,1.52
2022-08-09T16:22:42.278Z,1.42
2022-08-09T16:25:14.473Z,2.60
2022-08-09T16:27:42.526Z,2.20
2022-08-09T16:30:26.065Z,3.80
2022-08-09T16:33:11.510Z,5.57
2022-08-09T16:35:56.635Z,1.45
2022-08-09T16:38:25.318Z,0.98
2022-08-09T16:40:52.057Z,1.60
2022-08-09T16:43:18.831Z,0.90
2022-08-09T16:45:48.137Z,1.75
2022-08-09T16:48:39.806Z,2.75
2022-08-09T16:51:07.884Z,0.68
2022-08-09T16:53:35.608Z,1.35
2022-08-09T16:56:09.176Z,0.68
2022-08-09T16:58:37.562Z,2.97
2022-08-09T17:01:09.051Z,3.33
2022-08-09T17:03:36.531Z,1.33
2022-08-09T17:06:28.806Z,0.85
2022-08-09T17:09:03.141Z,1.02
2022-08-09T17:11:41.676Z,5.45
2022-08-09T17:14:26.283Z,5.95
2022-08-09T17:16:56.712Z,1.80
2022-08-09T17:20:06.005Z,1.00
2022-08-09T17:22:16.457Z,2.38
2022-08-09T17:24:55.482Z,2.50
2022-08-09T17:27:22.705Z,1.02
2022-08-09T17:29:50.734Z,3.78
2022-08-09T17:32:20.369Z,2.10
2022-08-09T17:35:07.561Z,1.00
2022-08-09T17:38:13.178Z,1.42
2022-08-09T17:40:27.742Z,5.50
2022-08-09T17:42:59.477Z,2.72
2022-08-09T17:45:45.497Z,1.02
2022-08-09T17:48:17.139Z,1.63
2022-08-09T17:50:48.509Z,0.55
2022-08-09T17:53:22.745Z,0.90
2022-08-09T17:55:55.328Z,2.50
2022-08-09T17:58:26.932Z,1.23
2022-08-09T18:00:58.453Z,2.30
2022-08-09T18:03:26.403Z,2.63
2022-08-09T18:05:57.177Z,3.22
2022-08-09T18:08:27.329Z,1.40
2022-08-09T18:11:02.041Z,1.40
2022-08-09T18:13:40.764Z,2.35
2022-08-09T18:16:29.555Z,1.58
2022-08-09T18:19:03.511Z,6.93
2022-08-09T18:21:40.907Z,2.50
2022-08-09T18:24:11.737Z,2.72
2022-08-09T18:26:46.494Z,4.00
2022-08-09T18:30:40.268Z,3.35
2022-08-09T18:32:04.951Z,2.83
2022-08-09T18:34:35.286Z,3.30
2022-08-09T18:37:10.511Z,2.28
2022-08-09T18:39:55.642Z,1.95
2022-08-09T18:42:31.240Z,8.32
2022-08-09T18:45:01.064Z,3.70
2022-08-09T18:47:32.743Z,2.65
2022-08-09T18:50:06.118Z,2.50
2022-08-09T18:52:39.465Z,1.88
2022-08-09T18:55:13.571Z,3.58
2022-08-09T18:57:43.513Z,4.07
2022-08-09T19:00:16.688Z,2.58
2022-08-09T19:02:48.098Z,4.07
2022-08-09T19:05:48.987Z,1.65
2022-08-09T19:08:14.190Z,3.67
2022-08-09T19:10:45.798Z,4.22
2022-08-09T19:13:20.619Z,3.60
2022-08-09T19:15:56.293Z,1.88
2022-08-09T19:18:34.914Z,3.08
2022-08-09T19:21:10.445Z,0.90
2022-08-09T19:24:36.588Z,2.35
2022-08-09T19:26:37.697Z,2.17
2022-08-09T19:29:09.778Z,1.75
2022-08-09T19:31:51.266Z,4.55
2022-08-09T19:34:23.172Z,3.72
2022-08-09T19:36:57.622Z,1.70
2022-08-09T19:39:43.045Z,4.68
2022-08-09T19:42:14.994Z,1.20
2022-08-09T19:44:50.919Z,3.20
2022-08-09T19:47:19.836Z,2.92
2022-08-09T19:50:06.678Z,2.97
2022-08-09T19:52:37.127Z,1.85
2022-08-09T19:55:15.911Z,3.70
2022-08-09T19:57:46.029Z,3.83
2022-08-09T20:00:13.405Z,4.75
2022-08-09T20:04:11.032Z,2.03
2022-08-09T20:05:27.502Z,1.95
2022-08-09T20:08:00.255Z,9.02
2022-08-09T20:10:34.436Z,6.65
2022-08-09T20:13:04.918Z,6.25
2022-08-09T20:16:35.105Z,5.80
2022-08-09T20:18:19.692Z,2.38
2022-08-09T20:20:47.231Z,1.45
2022-08-09T20:23:17.343Z,1.98
2022-08-09T20:25:52.357Z,2.90
2022-08-09T20:28:34.146Z,5.53
2022-08-09T20:31:04.624Z,1.42
2022-08-09T20:33:38.878Z,1.75
2022-08-09T20:36:10.586Z,4.60
2022-08-09T20:41:35.589Z,4.22
2022-08-09T20:44:09.789Z,6.13
2022-08-09T20:46:44.458Z,4.30
2022-08-09T20:49:14.000Z,2.53
2022-08-09T20:51:43.104Z,4.97
2022-08-09T20:54:17.199Z,1.83
2022-08-09T20:56:49.472Z,5.55
2022-08-09T20:59:50.037Z,2.85
2022-08-09T21:02:08.758Z,2.15
2022-08-09T21:05:56.394Z,4.75
2022-08-09T21:07:38.680Z,2.10
2022-08-09T21:10:11.997Z,2.63
2022-08-09T21:12:38.894Z,6.32
2022-08-09T21:15:06.413Z,4.03
2022-08-09T21:18:21.068Z,3.28
2022-08-09T21:20:26.688Z,1.88
2022-08-09T21:22:56.802Z,6.20
2022-08-09T21:25:44.489Z,2.05
2022-08-09T21:28:33.411Z,4.20
2022-08-09T21:31:13.498Z,1.10
2022-08-09T21:33:51.531Z,2.28
2022-08-09T21:36:28.125Z,1.45
2022-08-09T21:38:57.310Z,2.08
2022-08-09T21:42:05.034Z,1.63
2022-08-09T21:44:34.062Z,5.45
2022-08-09T21:47:08.879Z,4.68
2022-08-09T21:49:43.062Z,2.90
2022-08-09T21:52:18.119Z,1.40
2022-08-09T21:54:49.664Z,2.90
2022-08-09T21:57:36.978Z,1.10
2022-08-09T22:00:15.878Z,5.13
2022-08-09T22:02:43.194Z,3.28
2022-08-09T22:05:22.869Z,1.42
2022-08-09T22:07:53.388Z,2.53
2022-08-09T22:10:23.247Z,3.35
2022-08-09T22:12:52.108Z,1.67
2022-08-09T22:15:20.730Z,1.60
2022-08-09T22:17:50.565Z,3.45
2022-08-09T22:20:21.989Z,2.40
2022-08-09T22:22:53.887Z,1.23
2022-08-09T22:26:07.643Z,2.22
2022-08-09T22:28:09.327Z,1.20
2022-08-09T22:30:36.668Z,1.60
2022-08-09T22:33:09.455Z,2.35
2022-08-09T22:36:01.247Z,1.50
2022-08-09T22:38:28.476Z,2.65
2022-08-09T22:40:58.122Z,3.70
2022-08-09T22:44:00.803Z,2.25
2022-08-09T22:48:14.551Z,4.10
2022-08-09T22:49:10.164Z,1.02
2022-08-09T22:51:39.334Z,1.95
2022-08-09T22:54:08.076Z,2.67
2022-08-09T22:56:38.172Z,6.25
2022-08-09T22:59:55.885Z,1.83
2022-08-09T23:01:55.584Z,3.45
2022-08-09T23:04:22.918Z,5.10
2022-08-09T23:07:11.454Z,2.95
2022-08-09T23:09:40.681Z,2.58
2022-08-09T23:12:07.515Z,4.95
2022-08-09T23:14:41.328Z,1.17
2022-08-09T23:17:09.931Z,2.00
2022-08-09T23:20:06.388Z,2.67
2022-08-09T23:22:25.620Z,2.35
2022-08-09T23:24:52.234Z,1.60
2022-08-09T23:27:19.020Z,3.80
2022-08-09T23:29:45.693Z,2.42
2022-08-09T23:32:14.373Z,5.15
2022-08-09T23:34:41.018Z,9.02
2022-08-09T23:37:07.747Z,1.52
2022-08-09T23:39:34.349Z,2.10
2022-08-09T23:42:01.030Z,2.95
2022-08-09T23:44:29.763Z,5.47
2022-08-09T23:46:57.832Z,2.45
2022-08-09T23:49:25.674Z,1.73
2022-08-09T23:51:53.088Z,5.18
2022-08-09T23:54:21.562Z,2.80
2022-08-09T23:56:56.012Z,3.53
2022-08-09T23:59:46.279Z,3.50
